Dixon, South Dakota
Current Conditions -  °F | °C
As of 5:53 PM on Saturday 22 Nov 2014 (Local Time) from KICR Reporting Station
Few Clouds Few Clouds  
Wind Chill: 53°   Ceiling: Unl
Heat Index: 53°   Visibility: 10mi
Dew Point: 30°   Wind: 7mph
Humidity: 41%   Direction: 240°WSW
Pressure: 29.42"   Gusts: NA
Location:  43.2419°N, 99.4287°W
Report Text: KICR 222353Z AUTO 24006KT 10SM FEW120 12/M01 A2942 RMK AO2 SLP970 T01171011 10167 20106 51006
Loading
Personal Weather Stations






























Interactive Weather Map New forecast layout! Learn more

10-Day Weather Forecast

Advertisements
Track Severe Weather on mobile